Time;durP1;ratioP1;P1;durP2;ratioP2;P2;SDS_P1;SDS_P2;PMS_P1;PMS_P2;Temp;Humidity;BMP_temperature;BMP_pressure;BME280_temperature;BME280_humidity;BME280_pressure;Samples;Min_cycle;Max_cycle;Signal;HPM_P1;HPM_P2
2021/11/08 00:01:35;;;;;;;6.58;2.70;;;7.80;99.90;;;;;;1970650;72;21139;-77
2021/11/08 00:04:02;;;;;;;4.08;2.37;;;7.80;99.90;;;;;;1959647;72;21070;-78
2021/11/08 00:06:28;;;;;;;7.80;3.02;;;7.70;99.90;;;;;;1963076;72;21038;-79
2021/11/08 00:08:54;;;;;;;9.30;3.02;;;7.70;99.90;;;;;;1964862;72;21030;-78
2021/11/08 00:11:21;;;;;;;3.47;2.25;;;7.70;99.90;;;;;;1970306;72;21117;-78
2021/11/08 00:13:47;;;;;;;10.58;3.55;;;7.70;99.90;;;;;;1967401;72;21137;-77
2021/11/08 00:16:40;;;;;;;6.60;3.02;;;7.70;99.90;;;;;;1961512;72;21065;-78
2021/11/08 00:21:31;;;;;;;6.00;2.98;;;7.80;99.90;;;;;;1976777;72;21084;-78
2021/11/08 00:23:55;;;;;;;7.47;3.25;;;7.80;99.90;;;;;;1967696;72;21644;-78
2021/11/08 00:26:21;;;;;;;8.98;3.47;;;7.90;99.90;;;;;;1970943;72;21066;-77
2021/11/08 00:28:47;;;;;;;6.55;2.60;;;7.90;99.90;;;;;;1984031;72;21109;-78
2021/11/08 00:31:14;;;;;;;8.08;3.25;;;7.80;99.90;;;;;;1959700;72;21160;-77
2021/11/08 00:33:40;;;;;;;7.28;2.80;;;7.80;99.90;;;;;;1973360;72;21129;-77
2021/11/08 00:36:07;;;;;;;7.35;3.40;;;7.70;99.90;;;;;;1982674;72;21495;-78
2021/11/08 00:38:33;;;;;;;4.47;2.87;;;7.80;99.90;;;;;;1960143;72;21091;-78
2021/11/08 00:40:59;;;;;;;4.33;2.95;;;7.70;99.90;;;;;;1977002;72;21486;-78
2021/11/08 00:43:26;;;;;;;7.45;3.22;;;7.70;99.90;;;;;;1958742;72;21432;-77
2021/11/08 00:45:52;;;;;;;10.30;3.10;;;7.70;99.90;;;;;;1974721;72;21035;-77
2021/11/08 00:48:20;;;;;;;6.12;2.95;;;7.50;99.90;;;;;;1963071;72;21070;-78
2021/11/08 00:50:46;;;;;;;6.90;3.40;;;7.40;99.90;;;;;;1973000;71;21145;-77
2021/11/08 00:53:12;;;;;;;6.58;3.75;;;7.30;99.90;;;;;;1978983;72;21136;-78
2021/11/08 00:55:41;;;;;;;7.58;3.17;;;7.20;99.90;;;;;;1980758;72;21055;-78
2021/11/08 00:58:08;;;;;;;11.25;3.90;;;7.20;99.90;;;;;;1978258;72;21502;-76
2021/11/08 01:00:34;;;;;;;9.85;3.62;;;7.30;99.90;;;;;;1969576;72;21083;-78
2021/11/08 01:03:03;;;;;;;10.95;3.58;;;7.30;99.90;;;;;;1969787;72;21118;-77
2021/11/08 01:05:28;;;;;;;7.58;3.33;;;7.30;99.90;;;;;;1976306;72;21182;-78
2021/11/08 01:07:54;;;;;;;7.42;2.92;;;7.30;99.90;;;;;;1981459;72;21530;-76
2021/11/08 01:10:20;;;;;;;7.20;3.30;;;7.20;99.90;;;;;;1982641;72;21451;-77
2021/11/08 01:12:46;;;;;;;7.42;3.65;;;7.10;99.90;;;;;;1984969;72;21475;-77
2021/11/08 01:15:13;;;;;;;8.03;3.52;;;7.00;99.90;;;;;;1983723;72;21432;-77
2021/11/08 01:17:40;;;;;;;13.30;4.55;;;6.90;99.90;;;;;;1968417;72;21043;-78
2021/11/08 01:20:06;;;;;;;17.90;4.97;;;6.80;99.90;;;;;;1976546;71;21040;-76
2021/11/08 01:22:34;;;;;;;12.55;3.05;;;6.70;99.90;;;;;;1978761;72;21071;-77
2021/11/08 01:25:00;;;;;;;14.75;3.20;;;6.60;99.90;;;;;;1970415;72;21105;-77
2021/11/08 01:27:33;;;;;;;6.33;3.22;;;6.50;99.90;;;;;;1971732;72;21462;-77
2021/11/08 01:29:54;;;;;;;6.97;3.35;;;6.50;99.90;;;;;;1967018;72;21195;-78
2021/11/08 01:32:20;;;;;;;9.95;3.55;;;6.50;99.90;;;;;;1972841;72;21087;-77
2021/11/08 01:34:46;;;;;;;7.42;3.52;;;6.60;99.90;;;;;;1977376;72;21055;-78
2021/11/08 01:37:16;;;;;;;9.25;3.70;;;6.50;99.90;;;;;;1977189;72;21066;-78
2021/11/08 01:39:43;;;;;;;8.35;3.87;;;6.50;99.90;;;;;;1961110;72;21499;-76
2021/11/08 01:42:08;;;;;;;10.58;3.35;;;6.50;99.90;;;;;;1966370;72;21140;-76
2021/11/08 01:44:34;;;;;;;12.30;4.17;;;6.50;99.90;;;;;;1979133;72;21164;-77
2021/11/08 01:47:01;;;;;;;8.35;3.87;;;6.60;99.90;;;;;;1969918;72;21127;-78
2021/11/08 01:49:28;;;;;;;5.35;3.95;;;6.70;99.90;;;;;;1965678;72;21138;-78
2021/11/08 01:51:54;;;;;;;7.08;3.58;;;6.70;99.90;;;;;;1976477;72;21139;-77
2021/11/08 01:54:20;;;;;;;4.67;3.27;;;6.70;99.90;;;;;;1980012;72;21063;-78
2021/11/08 01:56:46;;;;;;;5.17;3.52;;;6.60;99.90;;;;;;1959339;72;21070;-78
2021/11/08 01:59:13;;;;;;;9.83;3.92;;;6.40;99.90;;;;;;1968632;72;21467;-78
2021/11/08 02:01:39;;;;;;;7.20;4.08;;;6.40;99.90;;;;;;1955899;72;21071;-77
2021/11/08 02:04:05;;;;;;;8.35;3.65;;;6.40;99.90;;;;;;1980158;72;21141;-78
2021/11/08 02:06:31;;;;;;;7.05;3.47;;;6.40;99.90;;;;;;1960102;72;21058;-78
2021/11/08 02:08:57;;;;;;;18.57;3.95;;;6.20;99.90;;;;;;1959298;72;21022;-78
2021/11/08 02:11:23;;;;;;;11.22;3.58;;;6.20;99.90;;;;;;1975670;72;21067;-77
2021/11/08 02:13:51;;;;;;;12.65;4.65;;;6.10;99.90;;;;;;1977890;72;21202;-76
2021/11/08 02:16:17;;;;;;;8.55;3.92;;;6.10;99.90;;;;;;1967113;72;21197;-77
2021/11/08 02:18:44;;;;;;;11.57;3.72;;;6.00;99.90;;;;;;1966511;72;21069;-78
2021/11/08 02:21:12;;;;;;;6.58;3.90;;;5.80;99.90;;;;;;1973939;72;21136;-78
2021/11/08 02:23:38;;;;;;;17.02;4.92;;;5.80;99.90;;;;;;1982446;72;21542;-78
2021/11/08 02:26:07;;;;;;;10.70;4.87;;;5.70;99.90;;;;;;1970349;72;21070;-78
2021/11/08 02:28:32;;;;;;;8.53;4.15;;;5.60;99.90;;;;;;1969745;72;21455;-78
2021/11/08 02:30:58;;;;;;;8.15;3.65;;;5.50;99.90;;;;;;1973832;72;21694;-78
2021/11/08 02:33:27;;;;;;;13.70;4.20;;;5.30;99.90;;;;;;1975145;72;21037;-78
2021/11/08 02:35:53;;;;;;;11.10;4.17;;;5.20;99.90;;;;;;1974765;72;21486;-78
2021/11/08 02:38:25;;;;;;;10.93;4.25;;;5.10;99.90;;;;;;1959196;72;21446;-78
2021/11/08 02:40:53;;;;;;;5.72;4.28;;;5.10;99.90;;;;;;1980342;72;21510;-75
2021/11/08 02:43:23;;;;;;;10.90;4.95;;;5.10;99.90;;;;;;1982236;72;21145;-76
2021/11/08 02:45:54;;;;;;;10.75;4.70;;;5.00;99.90;;;;;;1978563;72;21438;-77
2021/11/08 02:48:17;;;;;;;12.63;4.53;;;5.00;99.90;;;;;;1968189;71;21088;-77
2021/11/08 02:50:44;;;;;;;6.37;3.92;;;5.00;99.90;;;;;;1983666;72;21062;-77
2021/11/08 02:53:14;;;;;;;6.65;4.15;;;4.90;99.90;;;;;;1982588;72;21063;-78
2021/11/08 02:55:38;;;;;;;5.20;4.08;;;4.80;99.90;;;;;;1977095;72;21593;-76
2021/11/08 02:58:04;;;;;;;14.93;4.87;;;4.70;99.90;;;;;;1979749;72;21556;-77
2021/11/08 03:00:30;;;;;;;24.72;4.78;;;4.70;99.90;;;;;;1982708;72;21125;-78
2021/11/08 03:02:58;;;;;;;8.53;4.67;;;4.70;99.90;;;;;;1973589;72;21534;-75
2021/11/08 03:05:36;;;;;;;10.00;5.30;;;4.60;99.90;;;;;;1944667;72;21137;-78
2021/11/08 03:08:01;;;;;;;7.35;5.28;;;4.70;99.90;;;;;;1968750;72;21106;-76
2021/11/08 03:10:29;;;;;;;13.53;4.83;;;4.70;99.90;;;;;;1982594;72;21470;-77
2021/11/08 03:12:57;;;;;;;7.08;4.25;;;4.50;99.90;;;;;;1983554;72;21219;-77
2021/11/08 03:18:10;;;;;;;9.60;4.60;;;4.50;99.90;;;;;;1973344;72;21099;-76
2021/11/08 03:20:34;;;;;;;10.43;4.83;;;4.40;99.90;;;;;;1980830;72;21088;-78
2021/11/08 03:23:04;;;;;;;7.55;4.58;;;4.40;99.90;;;;;;1983412;72;21509;-78
2021/11/08 03:27:59;;;;;;;10.55;4.25;;;4.20;99.90;;;;;;1972297;72;21080;-76
2021/11/08 03:30:26;;;;;;;7.10;3.90;;;4.20;99.90;;;;;;1968830;71;21121;-77
2021/11/08 03:32:53;;;;;;;14.20;5.05;;;4.10;99.90;;;;;;1965408;72;21038;-77
2021/11/08 03:35:24;;;;;;;8.25;4.60;;;4.10;99.90;;;;;;1971300;72;21062;-77
2021/11/08 03:37:48;;;;;;;7.15;4.47;;;4.10;99.90;;;;;;1974502;72;21593;-77
2021/11/08 03:40:14;;;;;;;14.80;5.08;;;4.10;99.90;;;;;;1977408;72;21542;-78
2021/11/08 03:42:40;;;;;;;11.50;4.60;;;4.10;99.90;;;;;;1981306;72;21168;-77
2021/11/08 03:45:08;;;;;;;7.00;4.78;;;3.90;99.90;;;;;;1959370;72;21081;-78
2021/11/08 03:47:35;;;;;;;6.28;4.17;;;3.80;99.90;;;;;;1973331;72;21134;-78
2021/11/08 03:50:01;;;;;;;7.47;4.45;;;3.80;99.90;;;;;;1962790;72;21135;-78
2021/11/08 03:52:28;;;;;;;10.78;4.72;;;3.80;99.90;;;;;;1971035;72;21067;-77
2021/11/08 03:54:55;;;;;;;6.75;4.10;;;3.80;99.90;;;;;;1974999;72;21071;-79
2021/11/08 03:57:22;;;;;;;14.07;4.00;;;3.80;99.90;;;;;;1966840;72;21194;-78
2021/11/08 03:59:48;;;;;;;15.93;5.30;;;3.80;99.90;;;;;;1968433;72;21135;-78
2021/11/08 04:02:14;;;;;;;8.83;4.25;;;3.80;99.90;;;;;;1975841;72;21040;-78
2021/11/08 04:04:42;;;;;;;9.05;3.92;;;3.80;99.90;;;;;;1975226;72;21161;-78
2021/11/08 04:07:08;;;;;;;12.00;4.62;;;3.80;99.90;;;;;;1983275;72;21099;-78
2021/11/08 04:09:34;;;;;;;9.40;4.35;;;3.90;99.90;;;;;;1975425;72;21067;-78
2021/11/08 04:12:00;;;;;;;13.35;4.62;;;3.80;99.90;;;;;;1975976;72;21107;-78
2021/11/08 04:14:27;;;;;;;17.07;4.87;;;3.80;99.90;;;;;;1978045;72;21462;-78
2021/11/08 04:16:53;;;;;;;10.55;4.75;;;3.80;99.90;;;;;;1981941;72;21066;-78
2021/11/08 04:19:20;;;;;;;11.53;4.85;;;3.70;99.90;;;;;;1974525;72;21139;-78
2021/11/08 04:21:46;;;;;;;9.50;4.47;;;3.60;99.90;;;;;;1981368;72;21479;-78
2021/11/08 04:24:12;;;;;;;9.38;4.40;;;3.70;99.90;;;;;;1976890;72;21420;-77
2021/11/08 04:26:38;;;;;;;8.88;3.90;;;3.80;99.90;;;;;;1978051;71;21119;-78
2021/11/08 04:29:05;;;;;;;12.30;4.15;;;3.70;99.90;;;;;;1982552;72;21184;-77
2021/11/08 04:31:33;;;;;;;10.50;4.33;;;3.60;99.90;;;;;;1973998;72;21544;-78
2021/11/08 04:34:17;;;;;;;5.10;3.90;;;3.60;99.90;;;;;;1974014;72;21238;-76
2021/11/08 04:41:52;;;;;;;8.75;4.70;;;3.50;99.90;;;;;;1978878;72;21477;-78
2021/11/08 04:47:30;;;;;;;9.15;4.92;;;3.40;99.90;;;;;;1981538;72;21479;-78
2021/11/08 04:50:03;;;;;;;9.43;4.47;;;3.50;99.90;;;;;;1967931;72;21073;-76
2021/11/08 04:55:16;;;;;;;6.00;4.03;;;3.60;99.90;;;;;;1977021;72;21098;-78
2021/11/08 04:57:58;;;;;;;10.35;5.30;;;3.60;99.90;;;;;;1965695;72;21184;-77
2021/11/08 05:30:11;;;;;;;11.12;5.00;;;4.30;99.90;;;;;;1972786;72;21580;-78
2021/11/08 05:32:35;;;;;;;8.78;4.83;;;4.30;99.90;;;;;;1975762;71;21108;-77
2021/11/08 05:35:01;;;;;;;14.68;4.72;;;4.40;99.90;;;;;;1978406;72;21067;-75
2021/11/08 05:37:28;;;;;;;16.40;5.17;;;4.40;99.90;;;;;;1982729;72;21072;-75
2021/11/08 05:39:57;;;;;;;14.33;4.85;;;4.50;99.90;;;;;;1981521;72;21063;-75
2021/11/08 05:42:23;;;;;;;12.93;5.15;;;4.50;99.90;;;;;;1973869;72;21564;-77
2021/11/08 05:44:49;;;;;;;9.08;4.90;;;4.50;99.90;;;;;;1960467;72;21058;-79
2021/11/08 05:47:15;;;;;;;9.40;5.08;;;4.60;99.90;;;;;;1977887;72;21061;-79
2021/11/08 05:49:42;;;;;;;7.47;4.42;;;4.70;99.90;;;;;;1960155;72;21058;-78
2021/11/08 05:52:10;;;;;;;10.35;4.60;;;4.70;99.90;;;;;;1966587;72;21155;-79
2021/11/08 05:54:38;;;;;;;12.10;4.22;;;4.80;99.90;;;;;;1959350;72;21575;-79
2021/11/08 06:51:35;;;;;;;9.65;6.80;;;4.10;99.90;;;;;;1978161;72;21096;-80
2021/11/08 06:54:02;;;;;;;8.65;6.40;;;4.10;99.90;;;;;;1968803;72;21573;-76
2021/11/08 06:56:33;;;;;;;15.05;7.37;;;4.10;99.90;;;;;;1974150;72;21139;-78
2021/11/08 06:58:56;;;;;;;10.78;6.65;;;4.20;99.90;;;;;;1978050;72;21070;-77
2021/11/08 07:01:23;;;;;;;9.75;6.15;;;4.20;99.90;;;;;;1973896;71;21107;-76
2021/11/08 07:03:49;;;;;;;14.10;5.97;;;4.10;99.90;;;;;;1970532;72;21054;-77
2021/11/08 07:06:15;;;;;;;14.75;7.55;;;4.10;99.90;;;;;;1969907;72;21103;-76
2021/11/08 07:08:42;;;;;;;13.65;6.37;;;4.10;99.90;;;;;;1956482;72;21109;-76
2021/11/08 07:11:08;;;;;;;13.60;6.50;;;4.20;99.90;;;;;;1952263;72;21070;-77
2021/11/08 07:13:35;;;;;;;12.18;7.10;;;4.20;99.90;;;;;;1969033;71;21435;-76
2021/11/08 07:16:01;;;;;;;15.85;7.92;;;4.20;99.90;;;;;;1964468;72;21513;-76
2021/11/08 07:18:27;;;;;;;12.15;7.40;;;4.30;99.90;;;;;;1959299;72;21144;-78
2021/11/08 07:20:53;;;;;;;21.07;8.43;;;4.30;99.90;;;;;;1967237;71;21117;-77
2021/11/08 07:23:19;;;;;;;18.15;8.95;;;4.40;99.90;;;;;;1965809;72;21196;-77
2021/11/08 07:25:45;;;;;;;15.98;8.08;;;4.50;99.90;;;;;;1974440;72;21130;-79
2021/11/08 07:28:14;;;;;;;24.37;8.18;;;4.60;99.90;;;;;;1977693;72;21541;-79
2021/11/08 07:30:42;;;;;;;14.93;8.05;;;4.70;99.90;;;;;;1978342;72;21131;-80
2021/11/08 07:33:07;;;;;;;38.55;8.70;;;4.90;99.90;;;;;;1982633;72;21177;-75
2021/11/08 07:35:33;;;;;;;17.25;8.28;;;5.00;99.90;;;;;;1977976;71;21063;-80
2021/11/08 07:37:59;;;;;;;16.00;8.20;;;5.10;99.90;;;;;;1965512;72;21062;-80
2021/11/08 07:40:25;;;;;;;18.85;7.20;;;5.10;99.90;;;;;;1968146;72;21098;-79
2021/11/08 07:42:52;;;;;;;18.42;7.83;;;5.10;99.90;;;;;;1960303;72;21026;-81
2021/11/08 07:45:18;;;;;;;15.80;8.70;;;5.10;99.90;;;;;;1980696;72;21059;-78
2021/11/08 07:47:44;;;;;;;18.23;8.83;;;5.10;99.90;;;;;;1972346;72;21187;-78
2021/11/08 07:50:10;;;;;;;15.60;7.97;;;5.20;99.90;;;;;;1981641;72;21132;-79
2021/11/08 07:52:36;;;;;;;16.75;7.87;;;5.30;99.90;;;;;;1978746;72;21070;-78
2021/11/08 07:55:02;;;;;;;14.60;8.45;;;5.30;99.90;;;;;;1972036;72;21136;-78
2021/11/08 07:57:28;;;;;;;30.92;10.60;;;5.40;99.90;;;;;;1978649;72;21136;-78
2021/11/08 07:59:56;;;;;;;17.20;10.98;;;5.40;99.90;;;;;;1961824;72;21165;-79
2021/11/08 08:02:22;;;;;;;23.25;12.03;;;5.50;99.90;;;;;;1971976;72;21144;-78
2021/11/08 08:04:48;;;;;;;19.73;10.93;;;5.50;99.90;;;;;;1984690;72;21031;-79
2021/11/08 08:07:15;;;;;;;24.12;12.23;;;5.50;99.90;;;;;;1971924;72;21446;-79
2021/11/08 08:09:41;;;;;;;17.82;10.58;;;5.60;99.90;;;;;;1975802;72;21534;-78
2021/11/08 08:12:11;;;;;;;19.45;10.35;;;5.60;99.90;;;;;;1981493;72;21527;-78
2021/11/08 08:14:43;;;;;;;;;;;5.60;99.90;;;;;;1980393;72;21168;-78
2021/11/08 08:17:09;;;;;;;18.02;10.30;;;5.60;99.90;;;;;;1981089;72;20113;-79
2021/11/08 08:19:35;;;;;;;19.60;10.68;;;5.70;99.90;;;;;;1971692;72;21040;-78
2021/11/08 08:22:02;;;;;;;19.40;11.88;;;5.60;99.90;;;;;;1959159;72;21058;-79
2021/11/08 08:24:28;;;;;;;29.85;12.63;;;5.60;99.90;;;;;;1976538;72;21491;-78
2021/11/08 08:26:55;;;;;;;23.60;12.80;;;5.60;99.90;;;;;;1972639;71;21528;-78
2021/11/08 08:29:21;;;;;;;25.45;12.50;;;5.70;99.90;;;;;;1983290;72;21074;-78
2021/11/08 08:31:47;;;;;;;21.68;11.43;;;6.00;99.90;;;;;;1956243;72;21069;-77
2021/11/08 08:34:13;;;;;;;27.58;12.37;;;6.30;99.90;;;;;;1980579;72;21043;-78
2021/11/08 08:36:39;;;;;;;26.02;12.13;;;6.70;99.90;;;;;;1981004;72;21062;-77
2021/11/08 08:39:05;;;;;;;16.62;11.05;;;6.50;99.90;;;;;;1981920;72;21076;-76
2021/11/08 08:41:34;;;;;;;18.23;11.15;;;6.80;99.90;;;;;;1980942;72;21177;-75
2021/11/08 08:43:59;;;;;;;16.65;9.13;;;7.00;99.90;;;;;;1975457;72;21492;-76
2021/11/08 08:46:25;;;;;;;24.32;9.45;;;7.40;99.90;;;;;;1982581;72;21467;-78
2021/11/08 08:48:54;;;;;;;18.60;9.23;;;7.60;99.90;;;;;;1979071;72;21188;-79
2021/11/08 08:51:19;;;;;;;14.78;8.10;;;7.80;99.90;;;;;;1978648;72;21075;-79
2021/11/08 08:53:45;;;;;;;17.95;8.45;;;7.80;99.90;;;;;;1966488;72;21083;-75
2021/11/08 08:56:12;;;;;;;17.12;7.90;;;8.00;99.90;;;;;;1969175;72;21489;-76
2021/11/08 08:58:38;;;;;;;22.65;8.80;;;7.90;99.90;;;;;;1973407;72;21049;-76
2021/11/08 09:01:04;;;;;;;14.28;8.35;;;8.10;99.90;;;;;;1966717;72;21631;-76
2021/11/08 09:03:30;;;;;;;16.40;7.95;;;8.00;99.90;;;;;;1967109;71;21535;-79
2021/11/08 09:05:56;;;;;;;20.32;8.90;;;8.30;99.90;;;;;;1975842;72;21067;-78
2021/11/08 09:08:22;;;;;;;14.73;8.80;;;8.60;99.90;;;;;;1970412;72;21190;-76
2021/11/08 09:10:48;;;;;;;16.97;9.10;;;8.70;99.90;;;;;;1974264;72;21070;-79
2021/11/08 09:13:14;;;;;;;15.83;8.43;;;8.80;99.90;;;;;;1969198;72;21188;-80
2021/11/08 09:15:41;;;;;;;16.60;8.30;;;9.00;99.90;;;;;;1968962;72;21067;-76
2021/11/08 09:18:07;;;;;;;18.07;8.63;;;9.50;99.90;;;;;;1978056;72;21155;-77
2021/11/08 09:20:35;;;;;;;16.40;8.30;;;9.60;99.90;;;;;;1966904;72;21136;-77
2021/11/08 09:23:01;;;;;;;17.55;7.40;;;9.90;99.90;;;;;;1983207;72;21070;-78
2021/11/08 09:25:27;;;;;;;12.35;7.45;;;10.00;99.90;;;;;;1973828;72;21230;-78
2021/11/08 09:27:53;;;;;;;16.32;8.43;;;9.80;99.90;;;;;;1983546;72;21055;-76
2021/11/08 09:30:19;;;;;;;20.85;8.63;;;9.90;99.90;;;;;;1961644;72;21028;-79
2021/11/08 09:32:46;;;;;;;17.00;7.80;;;10.30;99.90;;;;;;1982934;72;21071;-79
2021/11/08 09:35:12;;;;;;;19.87;7.22;;;10.30;99.90;;;;;;1983250;71;21161;-79
2021/11/08 09:37:43;;;;;;;16.50;9.00;;;10.50;99.90;;;;;;1983503;72;21071;-78
2021/11/08 09:40:08;;;;;;;16.42;7.12;;;11.00;99.90;;;;;;1981227;72;21189;-78
2021/11/08 09:42:34;;;;;;;21.20;8.55;;;10.90;99.90;;;;;;1974573;72;21173;-78
2021/11/08 09:45:00;;;;;;;16.52;8.85;;;10.50;99.90;;;;;;1974849;72;21477;-77
2021/11/08 09:47:28;;;;;;;19.00;7.85;;;10.80;99.90;;;;;;1959432;72;21070;-79
2021/11/08 09:49:54;;;;;;;11.80;5.30;;;11.00;99.90;;;;;;1978674;72;21136;-79
2021/11/08 09:52:21;;;;;;;11.30;5.83;;;11.80;99.90;;;;;;1967214;72;21075;-82
2021/11/08 09:54:48;;;;;;;12.95;6.58;;;12.10;99.90;;;;;;1981314;72;21133;-79
2021/11/08 09:57:16;;;;;;;14.05;5.40;;;11.50;99.90;;;;;;1972148;72;21072;-77
2021/11/08 09:59:42;;;;;;;14.07;5.17;;;12.00;99.90;;;;;;1982306;72;21059;-78
2021/11/08 10:02:08;;;;;;;16.62;4.28;;;12.50;99.90;;;;;;1975932;72;21035;-79
2021/11/08 10:04:36;;;;;;;15.68;4.08;;;13.10;99.90;;;;;;1973096;72;21055;-79
2021/11/08 10:07:02;;;;;;;12.00;3.60;;;13.40;99.90;;;;;;1970864;72;21109;-76
2021/11/08 10:09:28;;;;;;;13.40;3.87;;;13.60;99.90;;;;;;1956665;72;21057;-78
2021/11/08 10:11:54;;;;;;;23.92;4.12;;;13.40;99.90;;;;;;1963685;72;21261;-78
2021/11/08 10:14:20;;;;;;;16.55;3.80;;;12.20;99.90;;;;;;1970629;72;21188;-77
2021/11/08 10:16:47;;;;;;;15.88;3.60;;;11.50;99.90;;;;;;1977998;72;21069;-78
2021/11/08 10:19:14;;;;;;;16.80;3.42;;;10.80;99.90;;;;;;1981860;72;21062;-78
2021/11/08 10:21:42;;;;;;;20.43;3.83;;;10.20;99.90;;;;;;1972323;72;21131;-79
2021/11/08 10:24:08;;;;;;;11.05;3.58;;;10.00;99.90;;;;;;1973579;72;21481;-79
2021/11/08 10:26:35;;;;;;;18.37;3.72;;;9.90;99.90;;;;;;1979754;72;21071;-80
2021/11/08 10:29:01;;;;;;;17.48;3.52;;;9.90;99.90;;;;;;1981436;72;21140;-80
2021/11/08 10:31:30;;;;;;;12.82;3.75;;;10.50;99.90;;;;;;1972179;72;21058;-78
2021/11/08 10:33:57;;;;;;;12.85;3.60;;;10.90;99.90;;;;;;1968374;72;21071;-78
2021/11/08 10:36:24;;;;;;;9.10;3.40;;;11.10;99.90;;;;;;1972079;72;21135;-79
2021/11/08 10:38:50;;;;;;;18.35;4.33;;;11.30;99.90;;;;;;1971804;72;21143;-79
2021/11/08 10:41:16;;;;;;;21.15;4.20;;;11.60;99.90;;;;;;1959593;72;21027;-79
2021/11/08 10:43:43;;;;;;;13.83;4.10;;;12.10;99.90;;;;;;1973347;72;21139;-77
2021/11/08 10:46:09;;;;;;;9.50;3.35;;;12.20;99.90;;;;;;1971286;72;21057;-78
2021/11/08 10:48:35;;;;;;;13.20;4.00;;;11.50;99.90;;;;;;1974691;71;21036;-78
2021/11/08 10:51:01;;;;;;;10.03;3.83;;;10.70;99.90;;;;;;1974522;72;21105;-79
2021/11/08 10:53:30;;;;;;;13.58;3.25;;;10.30;99.90;;;;;;1980987;72;21254;-76
2021/11/08 10:55:55;;;;;;;17.25;3.58;;;9.90;99.90;;;;;;1971014;72;21156;-78
2021/11/08 10:58:22;;;;;;;15.58;4.42;;;9.80;99.90;;;;;;1982564;72;21063;-79
2021/11/08 11:00:48;;;;;;;13.35;3.50;;;9.80;99.90;;;;;;1982564;72;21527;-79
2021/11/08 11:03:14;;;;;;;15.00;3.52;;;9.80;99.90;;;;;;1983507;72;21524;-79
2021/11/08 11:05:42;;;;;;;13.80;3.98;;;9.70;99.90;;;;;;1978251;72;21128;-79
2021/11/08 11:08:14;;;;;;;14.95;4.47;;;10.20;99.90;;;;;;1960646;72;21081;-78
2021/11/08 11:10:36;;;;;;;11.33;3.60;;;11.50;99.90;;;;;;1962998;72;21103;-78
2021/11/08 11:13:03;;;;;;;14.10;4.33;;;12.20;99.90;;;;;;1978679;72;21090;-78
2021/11/08 11:15:32;;;;;;;13.18;3.65;;;13.40;99.90;;;;;;1974942;72;21071;-79
2021/11/08 11:17:59;;;;;;;16.15;3.85;;;14.10;99.90;;;;;;1963694;72;21491;-79
2021/11/08 11:20:25;;;;;;;14.43;4.62;;;14.10;99.90;;;;;;1981653;72;21070;-79
2021/11/08 11:22:59;;;;;;;12.40;3.42;;;13.50;99.90;;;;;;1965390;72;21544;-79
2021/11/08 11:25:21;;;;;;;13.28;3.87;;;12.80;99.90;;;;;;1964822;72;21283;-79
2021/11/08 11:27:48;;;;;;;13.18;3.90;;;11.80;99.90;;;;;;1964173;72;21087;-80
2021/11/08 11:30:15;;;;;;;9.00;3.22;;;11.00;99.90;;;;;;1967380;72;21588;-78
2021/11/08 11:32:43;;;;;;;19.42;3.72;;;10.70;99.90;;;;;;1981644;72;21083;-78
2021/11/08 11:35:09;;;;;;;14.80;4.30;;;10.40;99.90;;;;;;1982980;72;21075;-79
2021/11/08 11:37:35;;;;;;;11.78;3.45;;;10.70;99.90;;;;;;1975560;72;21067;-78
2021/11/08 11:40:01;;;;;;;12.47;3.62;;;11.70;99.90;;;;;;1969438;72;21126;-80
2021/11/08 11:42:27;;;;;;;11.73;3.08;;;12.30;99.90;;;;;;1975910;72;21133;-79
2021/11/08 11:44:53;;;;;;;13.08;4.15;;;12.30;99.90;;;;;;1973004;72;21066;-78
2021/11/08 11:47:20;;;;;;;12.00;3.60;;;13.10;99.90;;;;;;1970886;72;21067;-80
2021/11/08 11:49:46;;;;;;;12.18;3.60;;;13.50;99.90;;;;;;1972904;72;21140;-80
2021/11/08 11:52:12;;;;;;;10.48;3.85;;;13.30;99.90;;;;;;1979354;72;21252;-80
2021/11/08 11:54:38;;;;;;;9.25;3.30;;;13.70;99.90;;;;;;1978763;72;21071;-79
2021/11/08 11:57:04;;;;;;;10.25;2.92;;;13.80;99.90;;;;;;1982293;72;21132;-80
2021/11/08 11:59:31;;;;;;;8.15;2.77;;;14.30;99.90;;;;;;1983690;72;21063;-77
2021/11/08 12:01:58;;;;;;;9.58;2.83;;;14.60;99.90;;;;;;1974763;72;21140;-77
2021/11/08 12:04:24;;;;;;;16.48;4.12;;;14.40;99.90;;;;;;1968264;72;21253;-74
2021/11/08 12:06:51;;;;;;;7.58;3.37;;;13.30;99.90;;;;;;1978645;72;21063;-79
2021/11/08 12:09:17;;;;;;;9.93;3.12;;;12.90;99.90;;;;;;1952376;72;21128;-79
2021/11/08 12:11:48;;;;;;;9.93;3.12;;;12.80;99.90;;;;;;1978488;72;21486;-81
2021/11/08 12:14:16;;;;;;;12.82;5.47;;;13.00;99.90;;;;;;1974361;71;21171;-77
2021/11/08 12:16:43;;;;;;;9.90;2.75;;;13.20;99.90;;;;;;1973772;72;21432;-80
2021/11/08 12:19:15;;;;;;;14.90;3.55;;;13.40;99.90;;;;;;1977978;72;21436;-78
2021/11/08 12:21:45;;;;;;;14.68;3.05;;;13.80;99.90;;;;;;1979619;72;21086;-79
2021/11/08 12:24:17;;;;;;;9.98;2.98;;;14.20;99.90;;;;;;1977905;72;21191;-80
2021/11/08 12:26:44;;;;;;;11.20;3.33;;;14.50;99.90;;;;;;1971946;72;21404;-80
2021/11/08 12:29:10;;;;;;;11.33;2.77;;;14.10;99.90;;;;;;1982545;72;21106;-79
2021/11/08 12:34:16;;;;;;;12.00;3.42;;;14.90;99.90;;;;;;1939469;71;21081;-80
2021/11/08 12:36:39;;;;;;;12.98;3.27;;;14.50;99.90;;;;;;1914250;72;21066;-79
2021/11/08 12:39:06;;;;;;;10.70;2.90;;;14.90;99.90;;;;;;1942383;72;21202;-79
2021/11/08 12:41:32;;;;;;;11.73;2.92;;;15.00;99.90;;;;;;1951992;72;21521;-75
2021/11/08 12:43:59;;;;;;;10.65;3.00;;;15.40;99.90;;;;;;1944593;72;21065;-83
2021/11/08 12:46:25;;;;;;;7.75;2.90;;;15.50;99.90;;;;;;1920960;72;21059;-79
2021/11/08 12:48:53;;;;;;;10.38;2.70;;;15.50;99.90;;;;;;1941876;72;21064;-79
2021/11/08 12:51:19;;;;;;;8.50;2.72;;;15.50;99.90;;;;;;1940008;72;21054;-80
2021/11/08 12:53:45;;;;;;;8.28;2.58;;;15.40;99.90;;;;;;1938051;72;21069;-80
2021/11/08 12:56:11;;;;;;;10.75;3.35;;;14.70;99.90;;;;;;1942502;72;21061;-79
2021/11/08 12:58:38;;;;;;;10.98;3.20;;;14.70;99.90;;;;;;1946196;72;21049;-80
2021/11/08 13:01:07;;;;;;;11.60;3.10;;;15.20;99.90;;;;;;1918328;72;21558;-80
2021/11/08 13:03:37;;;;;;;13.22;2.98;;;15.60;99.90;;;;;;1913206;72;21066;-80
2021/11/08 13:06:00;;;;;;;10.68;3.25;;;15.90;99.90;;;;;;1939151;72;21204;-79
2021/11/08 13:08:27;;;;;;;10.40;2.90;;;15.90;99.90;;;;;;1920767;73;21154;-80
2021/11/08 13:10:53;;;;;;;13.83;2.47;;;15.50;99.90;;;;;;1941947;72;21142;-79
2021/11/08 13:13:19;;;;;;;11.20;2.77;;;15.70;99.90;;;;;;1914952;72;21119;-79
2021/11/08 13:15:45;;;;;;;7.35;2.80;;;14.90;99.90;;;;;;1947840;72;21096;-81
2021/11/08 13:18:13;;;;;;;5.92;2.00;;;14.70;99.90;;;;;;1955111;73;21181;-81
2021/11/08 13:20:39;;;;;;;12.33;2.50;;;15.70;99.90;;;;;;1915100;72;21136;-80
2021/11/08 13:23:06;;;;;;;8.90;2.55;;;16.00;99.90;;;;;;1947215;72;21118;-79
2021/11/08 13:25:32;;;;;;;6.70;2.27;;;16.10;99.90;;;;;;1941731;72;21194;-84
2021/11/08 13:27:58;;;;;;;7.55;1.85;;;16.80;99.90;;;;;;1943578;72;21033;-82
2021/11/08 13:30:26;;;;;;;8.33;2.80;;;17.10;99.90;;;;;;1944680;72;21095;-82
2021/11/08 13:32:52;;;;;;;15.43;2.50;;;17.30;99.90;;;;;;1940114;73;21056;-81
2021/11/08 13:35:25;;;;;;;9.88;2.45;;;17.90;99.90;;;;;;1918455;73;21070;-81
2021/11/08 13:37:46;;;;;;;9.28;2.45;;;17.40;99.90;;;;;;1962619;71;21566;-80
2021/11/08 13:40:12;;;;;;;10.13;2.05;;;16.50;99.90;;;;;;1977363;70;21549;-79
2021/11/08 13:42:38;;;;;;;7.85;2.08;;;16.20;99.90;;;;;;1988065;71;21205;-80
2021/11/08 13:45:04;;;;;;;9.00;2.52;;;16.40;99.90;;;;;;1970178;71;21475;-80
2021/11/08 13:47:30;;;;;;;11.05;2.98;;;16.10;99.90;;;;;;1993425;72;21519;-80
2021/11/08 13:49:56;;;;;;;6.65;2.33;;;15.80;99.90;;;;;;1984875;71;21075;-80
2021/11/08 13:52:23;;;;;;;5.60;2.37;;;16.10;99.90;;;;;;1986757;72;21113;-80
2021/11/08 13:54:49;;;;;;;10.03;2.62;;;15.60;99.90;;;;;;1993080;70;21090;-79
2021/11/08 13:57:16;;;;;;;11.33;3.20;;;15.20;99.90;;;;;;1983041;70;21112;-79
2021/11/08 13:59:43;;;;;;;7.70;2.22;;;14.90;99.90;;;;;;1983725;71;21095;-80
2021/11/08 14:02:09;;;;;;;10.18;2.58;;;15.20;99.90;;;;;;1972645;71;21535;-79
2021/11/08 14:04:35;;;;;;;8.10;2.52;;;15.30;99.90;;;;;;1972526;71;21165;-79
2021/11/08 14:07:02;;;;;;;11.38;2.70;;;14.80;99.90;;;;;;1977568;71;21049;-80
2021/11/08 14:09:28;;;;;;;7.58;2.50;;;15.30;99.90;;;;;;1983386;71;21129;-80
2021/11/08 14:11:54;;;;;;;13.00;3.25;;;15.60;99.90;;;;;;1987759;71;21056;-80
2021/11/08 14:14:21;;;;;;;12.93;2.65;;;15.40;99.90;;;;;;1967679;71;21133;-78
2021/11/08 14:16:47;;;;;;;8.35;2.35;;;15.80;99.90;;;;;;1977270;72;21207;-80
2021/11/08 14:19:13;;;;;;;10.08;2.55;;;15.90;99.90;;;;;;1967852;71;21446;-80
2021/11/08 14:21:40;;;;;;;6.55;2.47;;;15.40;99.90;;;;;;1961937;71;21540;-80
2021/11/08 14:24:06;;;;;;;7.78;2.30;;;15.30;99.90;;;;;;1978069;71;21060;-80
2021/11/08 14:26:32;;;;;;;6.10;2.47;;;15.20;99.90;;;;;;1962621;70;21068;-81
2021/11/08 14:28:58;;;;;;;17.42;3.00;;;14.60;99.90;;;;;;1972197;71;21120;-80